createdAt,value
2022-10-21T00:02:59.410Z,2.04
2022-10-21T00:06:03.949Z,2.18
2022-10-21T00:09:07.087Z,2.31
2022-10-21T00:12:10.115Z,2.41
2022-10-21T00:15:13.383Z,2.51
2022-10-21T00:18:16.395Z,2.54
2022-10-21T00:21:22.335Z,2.59
2022-10-21T00:24:25.511Z,2.68
2022-10-21T00:27:28.686Z,2.70
2022-10-21T00:30:31.804Z,2.75
2022-10-21T00:33:35.125Z,2.82
2022-10-21T00:36:38.152Z,2.89
2022-10-21T00:39:41.557Z,2.99
2022-10-21T00:42:46.677Z,3.07
2022-10-21T00:45:53.618Z,3.20
2022-10-21T00:48:59.378Z,3.30
2022-10-21T00:52:05.186Z,3.38
2022-10-21T00:55:08.581Z,3.42
2022-10-21T00:58:12.861Z,3.41
2022-10-21T01:01:19.230Z,3.51
2022-10-21T01:04:24.606Z,3.62
2022-10-21T01:07:28.082Z,3.68
2022-10-21T01:10:31.280Z,3.78
2022-10-21T01:13:49.361Z,3.87
2022-10-21T01:17:43.717Z,3.92
2022-10-21T01:21:17.970Z,3.92
2022-10-21T01:24:51.204Z,3.97
2022-10-21T01:28:19.123Z,4.05
2022-10-21T01:31:26.092Z,4.11
2022-10-21T01:34:39.564Z,4.21
2022-10-21T01:37:58.921Z,4.41
2022-10-21T01:41:27.503Z,4.63
2022-10-21T01:44:52.133Z,4.78
2022-10-21T01:48:19.607Z,4.78
2022-10-21T01:54:45.275Z,4.44
2022-10-21T01:57:54.596Z,4.28
2022-10-21T02:01:01.315Z,4.21
2022-10-21T02:04:06.595Z,4.41
2022-10-21T02:07:10.203Z,4.68
2022-10-21T02:10:13.398Z,4.93
2022-10-21T02:13:23.633Z,5.15
2022-10-21T02:16:31.297Z,5.33
2022-10-21T02:19:34.496Z,5.45
2022-10-21T02:22:39.775Z,5.57
2022-10-21T02:25:46.979Z,5.60
2022-10-21T02:28:51.397Z,5.49
2022-10-21T02:32:13.612Z,5.28
2022-10-21T02:35:37.936Z,4.97
2022-10-21T02:39:04.073Z,4.76
2022-10-21T02:42:10.633Z,4.71
2022-10-21T02:45:13.774Z,4.79
2022-10-21T02:48:17.260Z,5.01
2022-10-21T02:51:20.332Z,5.21
2022-10-21T02:54:23.907Z,5.37
2022-10-21T02:57:27.054Z,5.51
2022-10-21T03:00:32.743Z,5.66
2022-10-21T03:03:36.178Z,5.69
2022-10-21T03:06:39.211Z,5.66
2022-10-21T03:09:42.372Z,5.65
2022-10-21T03:12:45.377Z,5.55
2022-10-21T03:15:50.440Z,5.57
2022-10-21T03:18:53.952Z,5.58
2022-10-21T03:21:57.261Z,5.54
2022-10-21T03:25:00.254Z,5.54
2022-10-21T03:28:04.787Z,5.53
2022-10-21T03:31:10.997Z,5.36
2022-10-21T03:34:14.093Z,5.18
2022-10-21T03:37:17.241Z,5.20
2022-10-21T03:40:20.364Z,5.24
2022-10-21T03:43:23.472Z,5.53
2022-10-21T03:46:26.527Z,5.88
2022-10-21T03:49:29.793Z,6.21
2022-10-21T03:52:32.764Z,6.42
2022-10-21T03:55:36.007Z,6.57
2022-10-21T03:58:39.161Z,6.78
2022-10-21T04:01:42.650Z,6.99
2022-10-21T04:04:45.820Z,7.16
2022-10-21T04:07:50.787Z,7.18
2022-10-21T04:10:58.422Z,7.11
2022-10-21T04:14:01.486Z,7.16
2022-10-21T04:17:07.636Z,7.20
2022-10-21T04:20:12.134Z,7.17
2022-10-21T04:23:15.649Z,7.10
2022-10-21T04:26:18.799Z,7.08
2022-10-21T04:29:22.037Z,7.08
2022-10-21T04:32:25.227Z,7.17
2022-10-21T04:35:28.401Z,7.50
2022-10-21T04:38:31.428Z,7.85
2022-10-21T04:41:34.526Z,8.21
2022-10-21T04:44:40.208Z,8.58
2022-10-21T04:47:43.326Z,8.80
2022-10-21T04:50:48.821Z,8.81
2022-10-21T04:53:51.923Z,8.97
2022-10-21T04:56:54.973Z,8.82
2022-10-21T04:59:58.001Z,8.80
2022-10-21T05:03:01.139Z,8.93
2022-10-21T05:06:04.313Z,9.13
2022-10-21T05:09:07.434Z,9.42
2022-10-21T05:12:10.511Z,9.57
2022-10-21T05:15:15.266Z,9.61
2022-10-21T05:18:18.444Z,9.66
2022-10-21T05:21:21.512Z,9.46
2022-10-21T05:24:24.839Z,9.19
2022-10-21T05:27:27.935Z,9.24
2022-10-21T05:30:31.036Z,9.17
2022-10-21T05:33:34.329Z,9.05
2022-10-21T05:36:38.015Z,9.02
2022-10-21T05:42:49.006Z,9.02
2022-10-21T05:45:52.015Z,9.19
2022-10-21T05:48:55.026Z,9.41
2022-10-21T05:51:58.233Z,9.57
2022-10-21T05:55:01.228Z,9.42
2022-10-21T05:58:04.309Z,9.31
2022-10-21T06:01:08.057Z,9.40
2022-10-21T06:04:11.249Z,9.39
2022-10-21T06:07:14.351Z,9.25
2022-10-21T06:10:18.391Z,9.04
2022-10-21T06:13:21.392Z,8.90
2022-10-21T06:16:24.696Z,8.95
2022-10-21T06:19:27.701Z,9.02
2022-10-21T06:22:30.756Z,8.92
2022-10-21T06:25:33.703Z,8.61
2022-10-21T06:28:38.188Z,8.34
2022-10-21T06:31:41.329Z,8.07
2022-10-21T06:34:44.329Z,7.94
2022-10-21T06:37:47.350Z,7.76
2022-10-21T06:40:51.424Z,7.65
2022-10-21T06:43:54.479Z,7.49
2022-10-21T06:46:57.475Z,7.33
2022-10-21T06:50:03.774Z,7.30
2022-10-21T06:53:06.895Z,7.39
2022-10-21T06:56:18.652Z,7.59
2022-10-21T06:59:21.755Z,7.64
2022-10-21T07:02:25.032Z,7.75
2022-10-21T07:05:28.051Z,7.82
2022-10-21T07:08:47.034Z,7.94
2022-10-21T07:11:55.815Z,8.35
2022-10-21T07:14:58.856Z,8.32
2022-10-21T07:18:01.829Z,8.13
2022-10-21T07:21:07.374Z,7.92
2022-10-21T07:24:10.767Z,7.71
2022-10-21T07:27:13.831Z,7.59
2022-10-21T07:30:17.057Z,7.48
2022-10-21T07:33:20.220Z,7.39
2022-10-21T07:36:26.258Z,7.32
2022-10-21T07:39:29.657Z,7.22
2022-10-21T07:42:32.718Z,7.16
2022-10-21T07:45:40.779Z,7.09
2022-10-21T07:48:43.875Z,6.97
2022-10-21T07:51:47.913Z,6.95
2022-10-21T07:54:50.912Z,6.89
2022-10-21T07:57:53.942Z,6.83
2022-10-21T08:01:01.632Z,6.78
2022-10-21T08:04:04.838Z,6.71
2022-10-21T08:07:10.304Z,6.71
2022-10-21T08:10:16.697Z,6.74
2022-10-21T08:13:20.146Z,6.79
2022-10-21T08:16:24.307Z,6.79
2022-10-21T08:19:30.155Z,6.83
2022-10-21T08:22:33.181Z,6.83
2022-10-21T08:25:37.038Z,6.83
2022-10-21T08:28:40.412Z,6.81
2022-10-21T08:31:43.694Z,6.79
2022-10-21T08:34:46.862Z,6.66
2022-10-21T08:37:50.438Z,6.43
2022-10-21T08:40:55.646Z,6.24
2022-10-21T08:44:24.108Z,6.10
2022-10-21T08:47:38.506Z,5.99
2022-10-21T08:50:47.742Z,5.88
2022-10-21T08:53:56.509Z,5.72
2022-10-21T08:57:01.063Z,5.58
2022-10-21T09:00:15.986Z,5.58
2022-10-21T09:03:37.893Z,5.58
2022-10-21T09:07:03.521Z,5.53
2022-10-21T09:10:29.527Z,5.60
2022-10-21T09:14:03.058Z,5.46
2022-10-21T09:17:19.095Z,5.43
2022-10-21T09:20:33.114Z,5.37
2022-10-21T09:24:19.798Z,5.31
2022-10-21T09:27:32.169Z,5.18
2022-10-21T09:30:47.187Z,5.08
2022-10-21T09:34:00.280Z,5.06
2022-10-21T09:37:06.302Z,4.99
2022-10-21T09:40:22.716Z,4.95
2022-10-21T09:43:29.371Z,4.82
2022-10-21T09:46:32.660Z,4.75
2022-10-21T09:50:05.288Z,4.75
2022-10-21T09:53:22.660Z,4.80
2022-10-21T09:56:47.522Z,4.74
2022-10-21T10:00:01.411Z,4.66
2022-10-21T10:03:14.527Z,4.56
2022-10-21T10:06:39.641Z,4.53
2022-10-21T10:09:47.426Z,4.43
2022-10-21T10:12:58.675Z,4.29
2022-10-21T10:16:30.002Z,4.16
2022-10-21T10:19:33.053Z,3.95
2022-10-21T10:22:38.849Z,3.74
2022-10-21T10:25:42.148Z,3.53
2022-10-21T10:28:51.538Z,3.42
2022-10-21T10:31:58.296Z,3.29
2022-10-21T10:35:05.575Z,3.10
2022-10-21T10:38:08.799Z,2.94
2022-10-21T10:41:13.167Z,2.80
2022-10-21T10:44:40.480Z,2.66
2022-10-21T10:47:48.392Z,2.66
2022-10-21T10:50:55.457Z,2.63
2022-10-21T10:54:18.655Z,2.59
2022-10-21T10:57:34.149Z,2.48
2022-10-21T11:00:49.254Z,2.42
2022-10-21T11:03:58.260Z,2.38
2022-10-21T11:07:15.736Z,2.40
2022-10-21T11:10:43.847Z,2.38
2022-10-21T11:13:47.150Z,2.28
2022-10-21T11:17:17.625Z,2.20
2022-10-21T11:20:40.125Z,2.25
2022-10-21T11:24:05.836Z,2.13
2022-10-21T11:27:46.017Z,2.04
2022-10-21T11:30:52.036Z,1.96
2022-10-21T11:34:08.418Z,1.86
2022-10-21T11:37:50.660Z,1.78
2022-10-21T11:41:03.161Z,1.67
2022-10-21T11:44:13.465Z,1.56
2022-10-21T11:47:27.778Z,1.51
2022-10-21T11:50:42.391Z,1.48
2022-10-21T11:54:11.343Z,1.46
2022-10-21T11:57:26.387Z,1.43
2022-10-21T12:00:39.509Z,1.40
2022-10-21T12:04:15.307Z,1.32
2022-10-21T12:07:23.885Z,1.28
2022-10-21T12:10:47.423Z,1.23
2022-10-21T12:13:58.269Z,1.20
2022-10-21T12:17:06.510Z,1.25
2022-10-21T12:20:23.007Z,1.28
2022-10-21T12:23:30.748Z,1.20
2022-10-21T12:26:43.475Z,1.18
2022-10-21T12:30:01.553Z,1.16
2022-10-21T12:33:17.908Z,1.16
2022-10-21T12:36:24.156Z,1.20
2022-10-21T12:39:51.121Z,1.12
2022-10-21T12:43:06.746Z,1.05
2022-10-21T12:46:13.577Z,0.91
2022-10-21T12:49:21.587Z,0.76
2022-10-21T12:52:26.811Z,0.82
2022-10-21T12:55:30.976Z,0.83
2022-10-21T12:58:40.031Z,0.85
2022-10-21T13:01:45.869Z,0.84
2022-10-21T13:04:51.964Z,0.85
2022-10-21T13:08:20.990Z,0.90
2022-10-21T13:11:25.889Z,0.91
2022-10-21T13:14:35.402Z,0.89
2022-10-21T13:17:53.400Z,0.89
2022-10-21T13:20:59.859Z,0.88
2022-10-21T13:24:27.293Z,0.87
2022-10-21T13:30:38.712Z,0.82
2022-10-21T13:33:55.570Z,0.80
2022-10-21T13:36:58.975Z,0.74
2022-10-21T13:40:05.177Z,0.75
2022-10-21T13:43:22.662Z,0.83
2022-10-21T13:46:28.215Z,0.83
2022-10-21T13:49:34.129Z,0.81
2022-10-21T13:52:38.830Z,0.79
2022-10-21T13:55:41.971Z,0.74
2022-10-21T13:58:45.122Z,0.72
2022-10-21T14:01:57.771Z,0.71
2022-10-21T14:05:00.985Z,0.66
2022-10-21T14:08:06.103Z,0.54
2022-10-21T14:11:19.284Z,0.52
2022-10-21T14:14:25.470Z,0.54
2022-10-21T14:17:29.164Z,0.54
2022-10-21T14:20:38.249Z,0.55
2022-10-21T14:23:45.010Z,0.52
2022-10-21T14:26:48.106Z,0.47
2022-10-21T14:29:51.278Z,0.41
2022-10-21T14:32:54.742Z,0.31
2022-10-21T14:36:10.419Z,0.22
2022-10-21T14:39:21.686Z,0.08
2022-10-21T14:42:26.296Z,-0.19
2022-10-21T14:45:35.454Z,-0.44
2022-10-21T14:48:49.205Z,-0.57
2022-10-21T14:52:00.246Z,-0.64
2022-10-21T14:55:08.823Z,-0.66
2022-10-21T14:58:23.480Z,-0.69
2022-10-21T15:01:27.622Z,-0.73
2022-10-21T15:04:53.022Z,-0.83
2022-10-21T15:08:14.298Z,-0.86
2022-10-21T15:11:21.434Z,-0.97
2022-10-21T15:14:32.707Z,-0.91
2022-10-21T15:17:36.084Z,-0.95
2022-10-21T15:20:39.365Z,-1.02
2022-10-21T15:23:55.079Z,-1.01
2022-10-21T15:27:00.411Z,-1.02
2022-10-21T15:30:16.032Z,-1.04
2022-10-21T15:33:19.073Z,-1.01
2022-10-21T15:36:22.809Z,-1.01
2022-10-21T15:39:25.868Z,-1.02
2022-10-21T15:42:28.881Z,-1.07
2022-10-21T15:45:31.911Z,-1.10
2022-10-21T15:48:35.218Z,-1.03
2022-10-21T15:51:38.286Z,-1.01
2022-10-21T15:54:42.230Z,-0.96
2022-10-21T15:57:45.484Z,-0.98
2022-10-21T16:00:48.568Z,-1.03
2022-10-21T16:03:51.714Z,-1.06
2022-10-21T16:06:55.405Z,-1.14
2022-10-21T16:09:58.562Z,-1.35
2022-10-21T16:13:01.841Z,-1.45
2022-10-21T16:16:06.014Z,-1.47
2022-10-21T16:19:10.564Z,-1.47
2022-10-21T16:22:19.327Z,-1.50
2022-10-21T16:25:22.562Z,-1.55
2022-10-21T16:28:25.751Z,-1.67
2022-10-21T16:31:29.059Z,-1.84
2022-10-21T16:34:32.054Z,-1.97
2022-10-21T16:37:35.092Z,-2.01
2022-10-21T16:40:38.222Z,-1.95
2022-10-21T16:43:41.652Z,-1.96
2022-10-21T16:46:56.572Z,-2.10
2022-10-21T16:50:02.370Z,-2.08
2022-10-21T16:53:05.998Z,-2.01
2022-10-21T16:56:09.893Z,-1.96
2022-10-21T16:59:13.109Z,-1.95
2022-10-21T17:02:20.973Z,-1.98
2022-10-21T17:05:24.199Z,-2.03
2022-10-21T17:08:27.394Z,-2.01
2022-10-21T17:11:36.681Z,-1.99
2022-10-21T17:14:42.204Z,-2.01
2022-10-21T17:17:45.421Z,-2.00
2022-10-21T17:20:50.456Z,-2.03
2022-10-21T17:23:54.789Z,-2.01
2022-10-21T17:26:58.350Z,-1.99
2022-10-21T17:30:01.348Z,-2.16
2022-10-21T17:33:04.410Z,-2.13
2022-10-21T17:36:08.114Z,-2.06
2022-10-21T17:39:11.352Z,-2.08
2022-10-21T17:42:18.174Z,-2.11
2022-10-21T17:45:22.483Z,-2.20
2022-10-21T17:48:26.701Z,-2.28
2022-10-21T17:51:30.890Z,-2.28
2022-10-21T17:54:36.124Z,-2.17
2022-10-21T17:57:39.402Z,-2.10
2022-10-21T18:00:44.591Z,-2.08
2022-10-21T18:03:49.402Z,-1.98
2022-10-21T18:06:52.629Z,-1.76
2022-10-21T18:09:56.848Z,-1.54
2022-10-21T18:12:59.806Z,-1.45
2022-10-21T18:16:06.067Z,-1.43
2022-10-21T18:19:09.366Z,-1.50
2022-10-21T18:22:13.016Z,-1.56
2022-10-21T18:25:16.360Z,-1.68
2022-10-21T18:28:19.386Z,-1.89
2022-10-21T18:31:22.418Z,-2.00
2022-10-21T18:34:25.626Z,-2.02
2022-10-21T18:37:28.659Z,-2.12
2022-10-21T18:40:31.895Z,-2.30
2022-10-21T18:43:36.392Z,-2.36
2022-10-21T18:46:42.141Z,-2.32
2022-10-21T18:49:45.151Z,-2.38
2022-10-21T18:52:48.137Z,-2.27
2022-10-21T18:55:51.190Z,-2.34
2022-10-21T18:58:56.951Z,-2.44
2022-10-21T19:02:00.581Z,-2.49
2022-10-21T19:05:03.883Z,-2.46
2022-10-21T19:08:06.892Z,-2.37
2022-10-21T19:11:09.943Z,-2.37
2022-10-21T19:14:14.550Z,-2.40
2022-10-21T19:17:17.996Z,-2.69
2022-10-21T19:20:21.097Z,-2.87
2022-10-21T19:23:24.157Z,-2.99
2022-10-21T19:26:27.170Z,-3.11
2022-10-21T19:29:30.403Z,-3.24
2022-10-21T19:32:33.471Z,-3.30
2022-10-21T19:35:37.709Z,-3.40
2022-10-21T19:38:44.472Z,-3.53
2022-10-21T19:41:48.454Z,-3.50
2022-10-21T19:44:51.644Z,-3.43
2022-10-21T19:47:54.847Z,-3.34
2022-10-21T19:51:00.009Z,-3.37
2022-10-21T19:54:05.753Z,-3.59
2022-10-21T19:57:08.728Z,-3.76
2022-10-21T20:00:12.946Z,-3.93
2022-10-21T20:03:15.829Z,-3.90
2022-10-21T20:06:25.871Z,-3.69
2022-10-21T20:09:28.927Z,-3.65
2022-10-21T20:12:32.503Z,-3.66
2022-10-21T20:15:36.684Z,-3.71
2022-10-21T20:18:39.692Z,-3.96
2022-10-21T20:21:43.464Z,-4.15
2022-10-21T20:24:46.667Z,-4.27
2022-10-21T20:27:49.783Z,-4.33
2022-10-21T20:31:10.417Z,-4.39
2022-10-21T20:34:14.462Z,-4.40
2022-10-21T20:37:17.531Z,-4.31
2022-10-21T20:40:21.321Z,-4.17
2022-10-21T20:43:24.299Z,-3.99
2022-10-21T20:46:27.759Z,-3.89
2022-10-21T20:49:32.076Z,-3.79
2022-10-21T20:52:35.064Z,-3.76
2022-10-21T20:55:38.188Z,-3.71
2022-10-21T20:58:42.350Z,-3.72
2022-10-21T21:01:47.356Z,-3.80
2022-10-21T21:04:50.505Z,-3.81
2022-10-21T21:07:53.507Z,-3.76
2022-10-21T21:11:01.832Z,-3.70
2022-10-21T21:14:04.873Z,-3.73
2022-10-21T21:17:07.913Z,-3.98
2022-10-21T21:20:11.398Z,-4.22
2022-10-21T21:23:14.293Z,-4.37
2022-10-21T21:26:23.173Z,-4.37
2022-10-21T21:29:26.186Z,-4.30
2022-10-21T21:32:29.429Z,-4.32
2022-10-21T21:35:32.373Z,-4.45
2022-10-21T21:38:35.881Z,-4.48
2022-10-21T21:41:38.911Z,-4.59
2022-10-21T21:44:41.957Z,-4.60
2022-10-21T21:47:44.953Z,-4.65
2022-10-21T21:50:48.737Z,-4.58
2022-10-21T21:53:52.391Z,-4.33
2022-10-21T21:57:16.021Z,-4.11
2022-10-21T22:00:18.578Z,-3.98
2022-10-21T22:03:21.770Z,-3.81
2022-10-21T22:06:28.297Z,-3.65
2022-10-21T22:09:31.635Z,-3.47
2022-10-21T22:12:34.666Z,-3.35
2022-10-21T22:15:48.165Z,-3.51
2022-10-21T22:18:51.935Z,-3.47
2022-10-21T22:21:54.936Z,-3.45
2022-10-21T22:24:57.897Z,-3.55
2022-10-21T22:28:00.890Z,-3.74
2022-10-21T22:31:09.991Z,-3.82
2022-10-21T22:34:12.984Z,-3.72
2022-10-21T22:37:15.994Z,-3.65
2022-10-21T22:40:19.063Z,-3.50
2022-10-21T22:43:22.590Z,-3.30
2022-10-21T22:46:40.946Z,-3.19
2022-10-21T22:49:44.328Z,-3.17
2022-10-21T22:52:47.380Z,-3.20
2022-10-21T22:55:50.548Z,-3.23
2022-10-21T22:58:53.557Z,-3.10
2022-10-21T23:01:56.525Z,-3.10
2022-10-21T23:04:59.542Z,-3.12
2022-10-21T23:08:02.490Z,-3.09
2022-10-21T23:11:05.626Z,-3.02
2022-10-21T23:14:10.091Z,-2.89
2022-10-21T23:17:13.168Z,-2.81
2022-10-21T23:20:16.120Z,-2.69
2022-10-21T23:23:19.182Z,-2.64
2022-10-21T23:26:22.271Z,-2.72
2022-10-21T23:29:25.335Z,-2.61
2022-10-21T23:32:28.353Z,-2.64
2022-10-21T23:35:31.525Z,-2.74
2022-10-21T23:38:34.467Z,-2.82
2022-10-21T23:41:37.483Z,-2.76
2022-10-21T23:44:40.709Z,-2.63
2022-10-21T23:47:44.009Z,-2.69
2022-10-21T23:50:47.238Z,-2.66
2022-10-21T23:53:50.260Z,-2.58
2022-10-21T23:56:53.253Z,-2.53
2022-10-21T23:59:56.350Z,-2.62
